McGaheysville, Virginia
Current Conditions -  °F | °C
As of 11:15 PM on Wednesday 26 Nov 2014 (Local Time) from KSHD Reporting Station
Moderate Fog Moderate Fog  
Wind Chill: 32°   Ceiling: 100
Heat Index: 32°   Visibility: 0.5mi
Dew Point: 31°   Wind: 0mph
Humidity: 96%   Direction: NA
Pressure: 30.02"   Gusts: NA
Location:  38.37°N, 78.73°W
Report Text: KSHD 270415Z AUTO 00000KT 1/2SM FG BKN001 OVC009 00/00 A3002 RMK AO2 T00021003
Loading
Personal Weather Stations






























Interactive Weather Map New forecast layout! Learn more

10-Day Weather Forecast

Advertisements
Track Severe Weather on mobile